sensor_id;sensor_type;location;lat;lon;timestamp;P1;durP1;ratioP1;P2;durP2;ratioP2
43986;SDS011;29650;47.378;8.300;2023-08-12T00:00:01;4.43;;;2.88;;
43986;SDS011;29650;47.378;8.300;2023-08-12T00:02:36;2.90;;;2.45;;
43986;SDS011;29650;47.378;8.300;2023-08-12T00:05:03;4.55;;;2.65;;
43986;SDS011;29650;47.378;8.300;2023-08-12T00:07:30;3.53;;;3.22;;
43986;SDS011;29650;47.378;8.300;2023-08-12T00:09:58;4.70;;;3.30;;
43986;SDS011;29650;47.378;8.300;2023-08-12T00:12:26;3.47;;;3.08;;
43986;SDS011;29650;47.378;8.300;2023-08-12T00:14:54;4.38;;;3.35;;
43986;SDS011;29650;47.378;8.300;2023-08-12T00:17:21;3.75;;;2.85;;
43986;SDS011;29650;47.378;8.300;2023-08-12T00:19:48;4.13;;;3.20;;
43986;SDS011;29650;47.378;8.300;2023-08-12T00:22:15;5.22;;;3.47;;
43986;SDS011;29650;47.378;8.300;2023-08-12T00:24:42;3.63;;;2.95;;
43986;SDS011;29650;47.378;8.300;2023-08-12T00:27:09;4.57;;;3.00;;
43986;SDS011;29650;47.378;8.300;2023-08-12T00:29:36;6.63;;;3.08;;
43986;SDS011;29650;47.378;8.300;2023-08-12T00:32:05;5.90;;;3.42;;
43986;SDS011;29650;47.378;8.300;2023-08-12T00:34:32;4.33;;;2.80;;
43986;SDS011;29650;47.378;8.300;2023-08-12T00:36:59;5.30;;;3.08;;
43986;SDS011;29650;47.378;8.300;2023-08-12T00:39:26;4.93;;;3.20;;
43986;SDS011;29650;47.378;8.300;2023-08-12T00:41:53;4.85;;;3.30;;
43986;SDS011;29650;47.378;8.300;2023-08-12T00:44:20;11.75;;;3.30;;
43986;SDS011;29650;47.378;8.300;2023-08-12T00:46:47;5.20;;;3.20;;
43986;SDS011;29650;47.378;8.300;2023-08-12T00:49:16;8.52;;;2.92;;
43986;SDS011;29650;47.378;8.300;2023-08-12T00:51:44;6.22;;;2.75;;
43986;SDS011;29650;47.378;8.300;2023-08-12T00:54:13;4.93;;;2.63;;
43986;SDS011;29650;47.378;8.300;2023-08-12T00:56:41;8.95;;;3.38;;
43986;SDS011;29650;47.378;8.300;2023-08-12T00:59:08;4.45;;;2.67;;
43986;SDS011;29650;47.378;8.300;2023-08-12T01:01:38;3.03;;;2.63;;
43986;SDS011;29650;47.378;8.300;2023-08-12T01:04:06;3.25;;;2.53;;
43986;SDS011;29650;47.378;8.300;2023-08-12T01:06:35;5.18;;;2.90;;
43986;SDS011;29650;47.378;8.300;2023-08-12T01:09:02;6.03;;;2.60;;
43986;SDS011;29650;47.378;8.300;2023-08-12T01:11:32;5.55;;;2.72;;
43986;SDS011;29650;47.378;8.300;2023-08-12T01:14:06;3.15;;;2.42;;
43986;SDS011;29650;47.378;8.300;2023-08-12T01:16:40;3.95;;;2.92;;
43986;SDS011;29650;47.378;8.300;2023-08-12T01:19:11;4.05;;;3.03;;
43986;SDS011;29650;47.378;8.300;2023-08-12T01:21:50;2.70;;;2.45;;
43986;SDS011;29650;47.378;8.300;2023-08-12T01:24:24;5.40;;;2.72;;
43986;SDS011;29650;47.378;8.300;2023-08-12T01:26:51;7.75;;;3.05;;
43986;SDS011;29650;47.378;8.300;2023-08-12T01:29:18;5.28;;;2.88;;
43986;SDS011;29650;47.378;8.300;2023-08-12T01:31:45;7.35;;;2.97;;
43986;SDS011;29650;47.378;8.300;2023-08-12T01:34:19;7.15;;;3.83;;
43986;SDS011;29650;47.378;8.300;2023-08-12T01:36:55;7.82;;;3.35;;
43986;SDS011;29650;47.378;8.300;2023-08-12T01:39:25;3.47;;;3.08;;
43986;SDS011;29650;47.378;8.300;2023-08-12T01:41:54;5.85;;;3.05;;
43986;SDS011;29650;47.378;8.300;2023-08-12T01:44:21;5.50;;;3.30;;
43986;SDS011;29650;47.378;8.300;2023-08-12T01:46:48;5.95;;;3.28;;
43986;SDS011;29650;47.378;8.300;2023-08-12T01:49:16;7.28;;;3.92;;
43986;SDS011;29650;47.378;8.300;2023-08-12T01:51:43;6.00;;;3.10;;
43986;SDS011;29650;47.378;8.300;2023-08-12T01:54:10;3.65;;;2.78;;
43986;SDS011;29650;47.378;8.300;2023-08-12T01:56:38;4.38;;;3.22;;
43986;SDS011;29650;47.378;8.300;2023-08-12T01:59:05;3.67;;;2.83;;
43986;SDS011;29650;47.378;8.300;2023-08-12T02:01:32;4.10;;;3.40;;
43986;SDS011;29650;47.378;8.300;2023-08-12T02:03:59;6.13;;;3.75;;
43986;SDS011;29650;47.378;8.300;2023-08-12T02:06:26;5.90;;;3.47;;
43986;SDS011;29650;47.378;8.300;2023-08-12T02:08:53;9.18;;;3.33;;
43986;SDS011;29650;47.378;8.300;2023-08-12T02:11:20;2.95;;;2.65;;
43986;SDS011;29650;47.378;8.300;2023-08-12T02:13:48;3.65;;;3.15;;
43986;SDS011;29650;47.378;8.300;2023-08-12T02:16:15;6.38;;;3.38;;
43986;SDS011;29650;47.378;8.300;2023-08-12T02:18:42;5.88;;;3.20;;
43986;SDS011;29650;47.378;8.300;2023-08-12T02:21:09;3.83;;;3.28;;
43986;SDS011;29650;47.378;8.300;2023-08-12T02:23:36;5.50;;;3.25;;
43986;SDS011;29650;47.378;8.300;2023-08-12T02:26:03;6.93;;;3.45;;
43986;SDS011;29650;47.378;8.300;2023-08-12T02:28:30;6.72;;;3.63;;
43986;SDS011;29650;47.378;8.300;2023-08-12T02:30:58;7.05;;;3.47;;
43986;SDS011;29650;47.378;8.300;2023-08-12T02:33:25;5.07;;;3.10;;
43986;SDS011;29650;47.378;8.300;2023-08-12T02:35:52;7.82;;;3.45;;
43986;SDS011;29650;47.378;8.300;2023-08-12T02:38:21;4.83;;;3.20;;
43986;SDS011;29650;47.378;8.300;2023-08-12T02:40:48;4.82;;;2.92;;
43986;SDS011;29650;47.378;8.300;2023-08-12T02:43:15;5.82;;;4.05;;
43986;SDS011;29650;47.378;8.300;2023-08-12T02:45:42;3.97;;;3.33;;
43986;SDS011;29650;47.378;8.300;2023-08-12T02:48:11;3.65;;;2.92;;
43986;SDS011;29650;47.378;8.300;2023-08-12T02:50:38;5.25;;;3.67;;
43986;SDS011;29650;47.378;8.300;2023-08-12T02:53:05;7.78;;;4.20;;
43986;SDS011;29650;47.378;8.300;2023-08-12T02:55:33;7.85;;;3.25;;
43986;SDS011;29650;47.378;8.300;2023-08-12T02:58:00;3.25;;;2.70;;
43986;SDS011;29650;47.378;8.300;2023-08-12T03:00:28;6.35;;;3.13;;
43986;SDS011;29650;47.378;8.300;2023-08-12T03:02:55;6.25;;;2.90;;
43986;SDS011;29650;47.378;8.300;2023-08-12T03:05:23;3.65;;;2.60;;
43986;SDS011;29650;47.378;8.300;2023-08-12T03:07:50;4.45;;;2.85;;
43986;SDS011;29650;47.378;8.300;2023-08-12T03:10:17;8.25;;;3.55;;
43986;SDS011;29650;47.378;8.300;2023-08-12T03:12:44;5.05;;;2.95;;
43986;SDS011;29650;47.378;8.300;2023-08-12T03:15:12;6.82;;;2.80;;
43986;SDS011;29650;47.378;8.300;2023-08-12T03:17:39;4.22;;;2.70;;
43986;SDS011;29650;47.378;8.300;2023-08-12T03:20:07;5.68;;;2.70;;
43986;SDS011;29650;47.378;8.300;2023-08-12T03:22:36;3.92;;;2.90;;
43986;SDS011;29650;47.378;8.300;2023-08-12T03:25:04;7.95;;;2.90;;
43986;SDS011;29650;47.378;8.300;2023-08-12T03:27:32;5.35;;;3.22;;
43986;SDS011;29650;47.378;8.300;2023-08-12T03:29:59;4.00;;;3.10;;
43986;SDS011;29650;47.378;8.300;2023-08-12T03:32:26;3.80;;;2.67;;
43986;SDS011;29650;47.378;8.300;2023-08-12T03:34:53;4.82;;;3.08;;
43986;SDS011;29650;47.378;8.300;2023-08-12T03:37:20;4.30;;;3.03;;
43986;SDS011;29650;47.378;8.300;2023-08-12T03:39:48;6.82;;;2.85;;
43986;SDS011;29650;47.378;8.300;2023-08-12T03:42:15;7.90;;;3.13;;
43986;SDS011;29650;47.378;8.300;2023-08-12T03:44:42;6.00;;;3.38;;
43986;SDS011;29650;47.378;8.300;2023-08-12T03:47:09;5.35;;;3.15;;
43986;SDS011;29650;47.378;8.300;2023-08-12T03:49:36;4.65;;;3.10;;
43986;SDS011;29650;47.378;8.300;2023-08-12T03:52:03;7.00;;;3.38;;
43986;SDS011;29650;47.378;8.300;2023-08-12T03:54:32;4.93;;;3.28;;
43986;SDS011;29650;47.378;8.300;2023-08-12T03:57:00;6.25;;;2.97;;
43986;SDS011;29650;47.378;8.300;2023-08-12T03:59:27;4.35;;;2.70;;
43986;SDS011;29650;47.378;8.300;2023-08-12T04:01:54;3.78;;;3.05;;
43986;SDS011;29650;47.378;8.300;2023-08-12T04:04:21;6.15;;;3.20;;
43986;SDS011;29650;47.378;8.300;2023-08-12T04:06:48;4.38;;;3.15;;
43986;SDS011;29650;47.378;8.300;2023-08-12T04:09:16;4.13;;;2.88;;
43986;SDS011;29650;47.378;8.300;2023-08-12T04:11:43;5.65;;;3.45;;
43986;SDS011;29650;47.378;8.300;2023-08-12T04:14:12;5.60;;;3.25;;
43986;SDS011;29650;47.378;8.300;2023-08-12T04:16:39;5.82;;;3.05;;
43986;SDS011;29650;47.378;8.300;2023-08-12T04:19:06;7.47;;;3.40;;
43986;SDS011;29650;47.378;8.300;2023-08-12T04:21:33;8.27;;;3.10;;
43986;SDS011;29650;47.378;8.300;2023-08-12T04:24:01;6.53;;;3.33;;
43986;SDS011;29650;47.378;8.300;2023-08-12T04:26:28;5.75;;;3.60;;
43986;SDS011;29650;47.378;8.300;2023-08-12T04:28:54;4.97;;;3.85;;
43986;SDS011;29650;47.378;8.300;2023-08-12T04:31:23;4.60;;;2.90;;
43986;SDS011;29650;47.378;8.300;2023-08-12T04:33:49;6.30;;;3.67;;
43986;SDS011;29650;47.378;8.300;2023-08-12T04:36:18;8.30;;;3.63;;
43986;SDS011;29650;47.378;8.300;2023-08-12T04:38:45;5.07;;;3.17;;
43986;SDS011;29650;47.378;8.300;2023-08-12T04:41:12;4.10;;;3.40;;
43986;SDS011;29650;47.378;8.300;2023-08-12T04:43:39;9.10;;;3.50;;
43986;SDS011;29650;47.378;8.300;2023-08-12T04:46:06;3.35;;;2.88;;
43986;SDS011;29650;47.378;8.300;2023-08-12T04:48:34;15.02;;;3.55;;
43986;SDS011;29650;47.378;8.300;2023-08-12T04:51:01;4.15;;;3.13;;
43986;SDS011;29650;47.378;8.300;2023-08-12T04:53:30;6.97;;;3.23;;
43986;SDS011;29650;47.378;8.300;2023-08-12T04:55:57;9.80;;;3.22;;
43986;SDS011;29650;47.378;8.300;2023-08-12T04:58:24;6.45;;;3.15;;
43986;SDS011;29650;47.378;8.300;2023-08-12T05:00:51;5.22;;;3.20;;
43986;SDS011;29650;47.378;8.300;2023-08-12T05:03:18;3.53;;;3.00;;
43986;SDS011;29650;47.378;8.300;2023-08-12T05:05:49;5.88;;;2.88;;
43986;SDS011;29650;47.378;8.300;2023-08-12T05:08:16;7.47;;;3.60;;
43986;SDS011;29650;47.378;8.300;2023-08-12T05:10:44;6.88;;;3.58;;
43986;SDS011;29650;47.378;8.300;2023-08-12T05:13:13;4.00;;;3.20;;
43986;SDS011;29650;47.378;8.300;2023-08-12T05:15:40;5.28;;;2.78;;
43986;SDS011;29650;47.378;8.300;2023-08-12T05:18:07;3.72;;;2.80;;
43986;SDS011;29650;47.378;8.300;2023-08-12T05:20:34;5.40;;;3.13;;
43986;SDS011;29650;47.378;8.300;2023-08-12T05:23:02;7.90;;;2.70;;
43986;SDS011;29650;47.378;8.300;2023-08-12T05:25:29;5.55;;;2.97;;
43986;SDS011;29650;47.378;8.300;2023-08-12T05:27:56;5.88;;;3.50;;
43986;SDS011;29650;47.378;8.300;2023-08-12T05:30:23;8.00;;;3.30;;
43986;SDS011;29650;47.378;8.300;2023-08-12T05:32:50;8.48;;;3.38;;
43986;SDS011;29650;47.378;8.300;2023-08-12T05:35:17;4.22;;;2.78;;
43986;SDS011;29650;47.378;8.300;2023-08-12T05:37:44;6.15;;;3.15;;
43986;SDS011;29650;47.378;8.300;2023-08-12T05:40:12;5.85;;;3.30;;
43986;SDS011;29650;47.378;8.300;2023-08-12T05:42:39;6.03;;;3.47;;
43986;SDS011;29650;47.378;8.300;2023-08-12T05:45:07;4.68;;;3.15;;
43986;SDS011;29650;47.378;8.300;2023-08-12T05:47:34;9.05;;;3.08;;
43986;SDS011;29650;47.378;8.300;2023-08-12T05:50:01;5.60;;;2.97;;
43986;SDS011;29650;47.378;8.300;2023-08-12T05:52:28;4.50;;;3.05;;
43986;SDS011;29650;47.378;8.300;2023-08-12T05:54:55;5.88;;;3.08;;
43986;SDS011;29650;47.378;8.300;2023-08-12T05:57:23;5.55;;;3.15;;
43986;SDS011;29650;47.378;8.300;2023-08-12T05:59:50;3.83;;;3.20;;
43986;SDS011;29650;47.378;8.300;2023-08-12T06:02:17;9.57;;;4.13;;
43986;SDS011;29650;47.378;8.300;2023-08-12T06:04:44;6.72;;;3.17;;
43986;SDS011;29650;47.378;8.300;2023-08-12T06:07:11;4.05;;;2.92;;
43986;SDS011;29650;47.378;8.300;2023-08-12T06:09:38;4.10;;;3.30;;
43986;SDS011;29650;47.378;8.300;2023-08-12T06:12:05;8.27;;;3.90;;
43986;SDS011;29650;47.378;8.300;2023-08-12T06:14:35;6.63;;;3.50;;
43986;SDS011;29650;47.378;8.300;2023-08-12T06:17:03;5.82;;;3.50;;
43986;SDS011;29650;47.378;8.300;2023-08-12T06:19:30;10.43;;;3.97;;
43986;SDS011;29650;47.378;8.300;2023-08-12T06:21:57;4.85;;;3.40;;
43986;SDS011;29650;47.378;8.300;2023-08-12T06:24:24;8.52;;;3.78;;
43986;SDS011;29650;47.378;8.300;2023-08-12T06:26:51;4.20;;;3.53;;
43986;SDS011;29650;47.378;8.300;2023-08-12T06:29:18;4.38;;;3.47;;
43986;SDS011;29650;47.378;8.300;2023-08-12T06:31:46;9.00;;;4.43;;
43986;SDS011;29650;47.378;8.300;2023-08-12T06:34:13;9.50;;;4.05;;
43986;SDS011;29650;47.378;8.300;2023-08-12T06:36:40;8.38;;;4.07;;
43986;SDS011;29650;47.378;8.300;2023-08-12T06:39:06;8.30;;;3.55;;
43986;SDS011;29650;47.378;8.300;2023-08-12T06:41:33;8.25;;;3.05;;
43986;SDS011;29650;47.378;8.300;2023-08-12T06:44:00;6.60;;;3.42;;
43986;SDS011;29650;47.378;8.300;2023-08-12T06:46:29;5.07;;;3.30;;
43986;SDS011;29650;47.378;8.300;2023-08-12T06:48:58;5.32;;;3.60;;
43986;SDS011;29650;47.378;8.300;2023-08-12T06:51:25;5.40;;;3.80;;
43986;SDS011;29650;47.378;8.300;2023-08-12T06:53:52;5.22;;;3.58;;
43986;SDS011;29650;47.378;8.300;2023-08-12T06:56:19;7.38;;;4.35;;
43986;SDS011;29650;47.378;8.300;2023-08-12T06:58:46;7.65;;;4.68;;
43986;SDS011;29650;47.378;8.300;2023-08-12T07:01:13;5.97;;;4.53;;
43986;SDS011;29650;47.378;8.300;2023-08-12T07:03:40;7.40;;;4.57;;
43986;SDS011;29650;47.378;8.300;2023-08-12T07:06:08;6.28;;;4.45;;
43986;SDS011;29650;47.378;8.300;2023-08-12T07:08:35;7.70;;;4.18;;
43986;SDS011;29650;47.378;8.300;2023-08-12T07:11:02;8.10;;;4.78;;
43986;SDS011;29650;47.378;8.300;2023-08-12T07:13:29;6.70;;;4.88;;
43986;SDS011;29650;47.378;8.300;2023-08-12T07:15:58;10.32;;;4.78;;
43986;SDS011;29650;47.378;8.300;2023-08-12T07:18:25;5.82;;;3.95;;
43986;SDS011;29650;47.378;8.300;2023-08-12T07:20:52;5.50;;;4.40;;
43986;SDS011;29650;47.378;8.300;2023-08-12T07:23:20;5.47;;;4.07;;
43986;SDS011;29650;47.378;8.300;2023-08-12T07:25:47;5.78;;;3.80;;
43986;SDS011;29650;47.378;8.300;2023-08-12T07:28:14;6.90;;;4.38;;
43986;SDS011;29650;47.378;8.300;2023-08-12T07:30:41;6.97;;;4.05;;
43986;SDS011;29650;47.378;8.300;2023-08-12T07:33:08;8.02;;;4.70;;
43986;SDS011;29650;47.378;8.300;2023-08-12T07:35:35;6.72;;;4.05;;
43986;SDS011;29650;47.378;8.300;2023-08-12T07:38:02;7.93;;;4.35;;
43986;SDS011;29650;47.378;8.300;2023-08-12T07:40:31;7.10;;;4.10;;
43986;SDS011;29650;47.378;8.300;2023-08-12T07:42:58;7.68;;;3.70;;
43986;SDS011;29650;47.378;8.300;2023-08-12T07:45:25;7.95;;;4.25;;
43986;SDS011;29650;47.378;8.300;2023-08-12T07:47:51;6.15;;;4.15;;
43986;SDS011;29650;47.378;8.300;2023-08-12T07:50:19;7.28;;;4.63;;
43986;SDS011;29650;47.378;8.300;2023-08-12T07:52:46;10.45;;;4.38;;
43986;SDS011;29650;47.378;8.300;2023-08-12T07:55:13;7.55;;;4.30;;
43986;SDS011;29650;47.378;8.300;2023-08-12T07:57:42;8.38;;;4.28;;
43986;SDS011;29650;47.378;8.300;2023-08-12T08:00:09;7.95;;;4.32;;
43986;SDS011;29650;47.378;8.300;2023-08-12T08:02:37;6.13;;;4.47;;
43986;SDS011;29650;47.378;8.300;2023-08-12T08:05:04;8.82;;;4.53;;
43986;SDS011;29650;47.378;8.300;2023-08-12T08:07:32;9.35;;;4.70;;
43986;SDS011;29650;47.378;8.300;2023-08-12T08:09:59;7.07;;;4.47;;
43986;SDS011;29650;47.378;8.300;2023-08-12T08:12:26;4.35;;;3.38;;
43986;SDS011;29650;47.378;8.300;2023-08-12T08:14:54;6.28;;;4.15;;
43986;SDS011;29650;47.378;8.300;2023-08-12T08:17:21;6.50;;;3.88;;
43986;SDS011;29650;47.378;8.300;2023-08-12T08:19:48;5.47;;;3.97;;
43986;SDS011;29650;47.378;8.300;2023-08-12T08:22:15;7.28;;;4.90;;
43986;SDS011;29650;47.378;8.300;2023-08-12T08:29:36;5.68;;;3.85;;
43986;SDS011;29650;47.378;8.300;2023-08-12T08:32:05;33.72;;;3.90;;
43986;SDS011;29650;47.378;8.300;2023-08-12T08:34:32;6.53;;;3.53;;
43986;SDS011;29650;47.378;8.300;2023-08-12T08:36:59;6.00;;;3.92;;
43986;SDS011;29650;47.378;8.300;2023-08-12T08:39:26;8.88;;;5.05;;
43986;SDS011;29650;47.378;8.300;2023-08-12T08:41:53;5.80;;;3.88;;
43986;SDS011;29650;47.378;8.300;2023-08-12T08:44:21;6.28;;;4.03;;
43986;SDS011;29650;47.378;8.300;2023-08-12T08:46:49;8.18;;;4.00;;
43986;SDS011;29650;47.378;8.300;2023-08-12T08:49:20;6.85;;;3.70;;
43986;SDS011;29650;47.378;8.300;2023-08-12T08:51:49;5.50;;;3.53;;
43986;SDS011;29650;47.378;8.300;2023-08-12T08:54:17;6.22;;;3.50;;
43986;SDS011;29650;47.378;8.300;2023-08-12T08:56:45;6.50;;;4.28;;
43986;SDS011;29650;47.378;8.300;2023-08-12T08:59:14;4.72;;;3.47;;
43986;SDS011;29650;47.378;8.300;2023-08-12T09:01:41;5.25;;;3.35;;
43986;SDS011;29650;47.378;8.300;2023-08-12T09:04:09;4.65;;;3.30;;
43986;SDS011;29650;47.378;8.300;2023-08-12T09:06:38;4.43;;;2.90;;
43986;SDS011;29650;47.378;8.300;2023-08-12T09:09:07;3.55;;;3.25;;
43986;SDS011;29650;47.378;8.300;2023-08-12T09:11:39;9.13;;;3.63;;
43986;SDS011;29650;47.378;8.300;2023-08-12T09:14:06;4.18;;;2.85;;
43986;SDS011;29650;47.378;8.300;2023-08-12T09:16:33;6.50;;;3.65;;
43986;SDS011;29650;47.378;8.300;2023-08-12T09:19:00;5.65;;;3.40;;
43986;SDS011;29650;47.378;8.300;2023-08-12T09:21:27;5.90;;;3.30;;
43986;SDS011;29650;47.378;8.300;2023-08-12T09:23:56;6.20;;;3.40;;
43986;SDS011;29650;47.378;8.300;2023-08-12T09:26:23;5.00;;;3.78;;
43986;SDS011;29650;47.378;8.300;2023-08-12T09:28:50;5.05;;;3.30;;
43986;SDS011;29650;47.378;8.300;2023-08-12T09:31:23;7.22;;;3.67;;
43986;SDS011;29650;47.378;8.300;2023-08-12T09:33:51;5.05;;;3.30;;
43986;SDS011;29650;47.378;8.300;2023-08-12T09:36:19;6.63;;;3.50;;
43986;SDS011;29650;47.378;8.300;2023-08-12T09:38:47;5.18;;;3.30;;
43986;SDS011;29650;47.378;8.300;2023-08-12T09:41:16;6.47;;;3.17;;
43986;SDS011;29650;47.378;8.300;2023-08-12T09:43:43;6.30;;;3.60;;
43986;SDS011;29650;47.378;8.300;2023-08-12T09:46:10;5.68;;;3.03;;
43986;SDS011;29650;47.378;8.300;2023-08-12T09:48:38;6.07;;;3.13;;
43986;SDS011;29650;47.378;8.300;2023-08-12T09:51:06;9.18;;;3.22;;
43986;SDS011;29650;47.378;8.300;2023-08-12T09:53:34;4.60;;;3.63;;
43986;SDS011;29650;47.378;8.300;2023-08-12T09:56:02;5.00;;;3.38;;
43986;SDS011;29650;47.378;8.300;2023-08-12T09:58:34;6.90;;;3.40;;
43986;SDS011;29650;47.378;8.300;2023-08-12T10:01:02;5.37;;;2.80;;
43986;SDS011;29650;47.378;8.300;2023-08-12T10:03:29;5.53;;;3.00;;
43986;SDS011;29650;47.378;8.300;2023-08-12T10:05:59;5.28;;;3.10;;
43986;SDS011;29650;47.378;8.300;2023-08-12T10:08:27;4.70;;;2.88;;
43986;SDS011;29650;47.378;8.300;2023-08-12T10:10:54;6.43;;;3.00;;
43986;SDS011;29650;47.378;8.300;2023-08-12T10:13:21;3.80;;;2.50;;
43986;SDS011;29650;47.378;8.300;2023-08-12T10:15:50;4.82;;;2.30;;
43986;SDS011;29650;47.378;8.300;2023-08-12T10:18:18;4.95;;;2.22;;
43986;SDS011;29650;47.378;8.300;2023-08-12T10:20:46;4.13;;;2.03;;
43986;SDS011;29650;47.378;8.300;2023-08-12T10:23:15;3.50;;;1.90;;
43986;SDS011;29650;47.378;8.300;2023-08-12T10:25:44;4.20;;;2.25;;
43986;SDS011;29650;47.378;8.300;2023-08-12T10:28:11;4.85;;;2.33;;
43986;SDS011;29650;47.378;8.300;2023-08-12T10:30:39;3.88;;;2.00;;
43986;SDS011;29650;47.378;8.300;2023-08-12T10:33:08;3.58;;;2.20;;
43986;SDS011;29650;47.378;8.300;2023-08-12T10:35:45;3.23;;;2.30;;
43986;SDS011;29650;47.378;8.300;2023-08-12T10:38:16;2.60;;;2.20;;
43986;SDS011;29650;47.378;8.300;2023-08-12T10:40:45;4.03;;;2.33;;
43986;SDS011;29650;47.378;8.300;2023-08-12T10:43:12;3.42;;;2.17;;
43986;SDS011;29650;47.378;8.300;2023-08-12T10:45:44;4.63;;;2.50;;
43986;SDS011;29650;47.378;8.300;2023-08-12T10:48:20;3.40;;;2.22;;
43986;SDS011;29650;47.378;8.300;2023-08-12T10:50:49;3.67;;;2.23;;
43986;SDS011;29650;47.378;8.300;2023-08-12T10:53:22;4.15;;;2.58;;
43986;SDS011;29650;47.378;8.300;2023-08-12T10:55:54;5.13;;;2.58;;
43986;SDS011;29650;47.378;8.300;2023-08-12T10:58:29;4.00;;;2.70;;
43986;SDS011;29650;47.378;8.300;2023-08-12T11:01:00;5.55;;;2.47;;
43986;SDS011;29650;47.378;8.300;2023-08-12T11:03:32;5.25;;;3.10;;
43986;SDS011;29650;47.378;8.300;2023-08-12T11:06:01;4.05;;;2.92;;
43986;SDS011;29650;47.378;8.300;2023-08-12T11:08:29;8.77;;;5.28;;
43986;SDS011;29650;47.378;8.300;2023-08-12T11:10:56;6.00;;;4.30;;
43986;SDS011;29650;47.378;8.300;2023-08-12T11:13:26;5.78;;;2.83;;
43986;SDS011;29650;47.378;8.300;2023-08-12T11:15:54;4.38;;;2.75;;
43986;SDS011;29650;47.378;8.300;2023-08-12T11:18:35;3.38;;;2.58;;
43986;SDS011;29650;47.378;8.300;2023-08-12T11:21:02;3.70;;;2.80;;
43986;SDS011;29650;47.378;8.300;2023-08-12T11:23:30;3.33;;;2.38;;
43986;SDS011;29650;47.378;8.300;2023-08-12T11:25:58;4.57;;;2.60;;
43986;SDS011;29650;47.378;8.300;2023-08-12T11:28:27;6.85;;;2.70;;
43986;SDS011;29650;47.378;8.300;2023-08-12T11:30:54;4.38;;;2.63;;
43986;SDS011;29650;47.378;8.300;2023-08-12T11:33:22;3.80;;;2.60;;
43986;SDS011;29650;47.378;8.300;2023-08-12T11:35:51;3.85;;;2.75;;
43986;SDS011;29650;47.378;8.300;2023-08-12T11:38:18;4.32;;;2.58;;
43986;SDS011;29650;47.378;8.300;2023-08-12T11:40:46;5.25;;;2.90;;
43986;SDS011;29650;47.378;8.300;2023-08-12T11:43:13;6.60;;;2.97;;
43986;SDS011;29650;47.378;8.300;2023-08-12T11:45:41;5.18;;;2.80;;
43986;SDS011;29650;47.378;8.300;2023-08-12T11:48:09;3.47;;;2.92;;
43986;SDS011;29650;47.378;8.300;2023-08-12T11:50:36;5.88;;;2.60;;
43986;SDS011;29650;47.378;8.300;2023-08-12T11:53:05;6.23;;;3.00;;
43986;SDS011;29650;47.378;8.300;2023-08-12T11:55:32;9.50;;;3.03;;
43986;SDS011;29650;47.378;8.300;2023-08-12T11:57:59;5.85;;;3.03;;
43986;SDS011;29650;47.378;8.300;2023-08-12T12:00:27;4.30;;;3.20;;
43986;SDS011;29650;47.378;8.300;2023-08-12T12:02:54;4.10;;;2.70;;
43986;SDS011;29650;47.378;8.300;2023-08-12T12:05:22;4.87;;;3.13;;
43986;SDS011;29650;47.378;8.300;2023-08-12T12:07:51;3.80;;;2.92;;
43986;SDS011;29650;47.378;8.300;2023-08-12T12:10:20;4.43;;;2.83;;
43986;SDS011;29650;47.378;8.300;2023-08-12T12:12:48;5.03;;;2.85;;
43986;SDS011;29650;47.378;8.300;2023-08-12T12:15:15;3.80;;;3.13;;
43986;SDS011;29650;47.378;8.300;2023-08-12T12:17:42;5.73;;;2.90;;
43986;SDS011;29650;47.378;8.300;2023-08-12T12:20:11;3.45;;;2.63;;
43986;SDS011;29650;47.378;8.300;2023-08-12T12:22:40;4.50;;;2.95;;
43986;SDS011;29650;47.378;8.300;2023-08-12T12:25:10;4.73;;;2.43;;
43986;SDS011;29650;47.378;8.300;2023-08-12T12:27:41;5.63;;;2.60;;
43986;SDS011;29650;47.378;8.300;2023-08-12T12:30:10;3.25;;;2.30;;
43986;SDS011;29650;47.378;8.300;2023-08-12T12:32:38;7.43;;;2.55;;
43986;SDS011;29650;47.378;8.300;2023-08-12T12:35:06;4.03;;;2.22;;
43986;SDS011;29650;47.378;8.300;2023-08-12T12:37:34;4.22;;;2.30;;
43986;SDS011;29650;47.378;8.300;2023-08-12T12:40:01;4.28;;;2.15;;
43986;SDS011;29650;47.378;8.300;2023-08-12T12:42:28;3.72;;;1.95;;
43986;SDS011;29650;47.378;8.300;2023-08-12T12:44:56;4.40;;;2.20;;
43986;SDS011;29650;47.378;8.300;2023-08-12T12:47:23;3.83;;;2.10;;
43986;SDS011;29650;47.378;8.300;2023-08-12T12:49:50;3.08;;;2.00;;
43986;SDS011;29650;47.378;8.300;2023-08-12T12:52:17;3.70;;;2.05;;
43986;SDS011;29650;47.378;8.300;2023-08-12T12:54:44;3.63;;;1.67;;
43986;SDS011;29650;47.378;8.300;2023-08-12T12:57:11;3.50;;;1.92;;
43986;SDS011;29650;47.378;8.300;2023-08-12T12:59:38;3.63;;;1.92;;
43986;SDS011;29650;47.378;8.300;2023-08-12T13:02:07;3.85;;;2.35;;
43986;SDS011;29650;47.378;8.300;2023-08-12T13:04:34;4.63;;;2.50;;
43986;SDS011;29650;47.378;8.300;2023-08-12T13:07:01;4.00;;;2.63;;
43986;SDS011;29650;47.378;8.300;2023-08-12T13:09:28;3.50;;;2.50;;
43986;SDS011;29650;47.378;8.300;2023-08-12T13:11:56;4.40;;;2.37;;
43986;SDS011;29650;47.378;8.300;2023-08-12T13:14:23;3.58;;;2.58;;
43986;SDS011;29650;47.378;8.300;2023-08-12T13:16:50;3.25;;;2.65;;
43986;SDS011;29650;47.378;8.300;2023-08-12T13:19:19;3.28;;;2.30;;
43986;SDS011;29650;47.378;8.300;2023-08-12T13:21:46;5.22;;;2.30;;
43986;SDS011;29650;47.378;8.300;2023-08-12T13:24:13;4.67;;;2.20;;
43986;SDS011;29650;47.378;8.300;2023-08-12T13:26:40;4.65;;;2.10;;
43986;SDS011;29650;47.378;8.300;2023-08-12T13:29:07;3.45;;;2.33;;
43986;SDS011;29650;47.378;8.300;2023-08-12T13:31:34;2.28;;;1.85;;
43986;SDS011;29650;47.378;8.300;2023-08-12T13:34:01;2.88;;;1.80;;
43986;SDS011;29650;47.378;8.300;2023-08-12T13:36:29;5.67;;;1.90;;
43986;SDS011;29650;47.378;8.300;2023-08-12T13:38:56;3.50;;;2.10;;
43986;SDS011;29650;47.378;8.300;2023-08-12T13:41:23;3.50;;;2.03;;
43986;SDS011;29650;47.378;8.300;2023-08-12T13:43:50;2.80;;;1.95;;
43986;SDS011;29650;47.378;8.300;2023-08-12T13:46:17;3.25;;;2.20;;
43986;SDS011;29650;47.378;8.300;2023-08-12T13:48:44;2.40;;;1.98;;
43986;SDS011;29650;47.378;8.300;2023-08-12T13:51:11;3.47;;;1.90;;
43986;SDS011;29650;47.378;8.300;2023-08-12T13:53:39;4.15;;;1.90;;
43986;SDS011;29650;47.378;8.300;2023-08-12T13:56:06;3.33;;;2.17;;
43986;SDS011;29650;47.378;8.300;2023-08-12T13:58:33;4.47;;;2.58;;
43986;SDS011;29650;47.378;8.300;2023-08-12T14:01:00;8.02;;;2.92;;
43986;SDS011;29650;47.378;8.300;2023-08-12T14:03:27;5.18;;;2.60;;
43986;SDS011;29650;47.378;8.300;2023-08-12T14:05:55;4.97;;;2.50;;
43986;SDS011;29650;47.378;8.300;2023-08-12T14:08:22;5.28;;;2.72;;
43986;SDS011;29650;47.378;8.300;2023-08-12T14:10:51;4.28;;;2.50;;
43986;SDS011;29650;47.378;8.300;2023-08-12T14:13:17;10.40;;;2.92;;
43986;SDS011;29650;47.378;8.300;2023-08-12T14:15:44;5.07;;;2.63;;
43986;SDS011;29650;47.378;8.300;2023-08-12T14:18:11;5.78;;;2.75;;
43986;SDS011;29650;47.378;8.300;2023-08-12T14:20:38;3.97;;;2.55;;
43986;SDS011;29650;47.378;8.300;2023-08-12T14:23:05;4.25;;;2.50;;
43986;SDS011;29650;47.378;8.300;2023-08-12T14:25:33;8.82;;;3.42;;
43986;SDS011;29650;47.378;8.300;2023-08-12T14:28:02;5.40;;;2.95;;
43986;SDS011;29650;47.378;8.300;2023-08-12T14:30:29;5.80;;;2.83;;
43986;SDS011;29650;47.378;8.300;2023-08-12T14:32:56;7.43;;;3.30;;
43986;SDS011;29650;47.378;8.300;2023-08-12T14:35:24;6.97;;;2.70;;
43986;SDS011;29650;47.378;8.300;2023-08-12T14:37:51;4.43;;;2.97;;
43986;SDS011;29650;47.378;8.300;2023-08-12T14:40:18;5.15;;;2.90;;
43986;SDS011;29650;47.378;8.300;2023-08-12T14:42:45;4.47;;;3.05;;
43986;SDS011;29650;47.378;8.300;2023-08-12T14:45:13;3.60;;;2.35;;
43986;SDS011;29650;47.378;8.300;2023-08-12T14:47:40;6.22;;;2.80;;
43986;SDS011;29650;47.378;8.300;2023-08-12T14:50:07;5.25;;;2.83;;
43986;SDS011;29650;47.378;8.300;2023-08-12T14:52:35;5.03;;;3.00;;
43986;SDS011;29650;47.378;8.300;2023-08-12T14:55:02;4.00;;;2.40;;